Terminal Aerodrome Forecast
Issued by NWS

Home | Current Version | Previous Version | Text Only | Print | Product List | Glossary On
Versions: 1 2 3 4 5 6 7 8 9 10 11 12 13
000
FTUS41 KBTV 271121
TAFPBG
TAF
KPBG 271121Z 2712/2812 VRB04KT P6SM BKN060
     FM271400 04005KT P6SM FEW060
     FM280600 VRB03KT P6SM BKN200=

USA.gov is the U.S. government's official web portal to all federal, state and local government web resources and services.